Terminal Aerodrome Forecast
Issued by NWS

Home | Current Version | Previous Version | Text Only | Print | Product List | Glossary On
Versions: 1 2 3 4 5 6 7 8 9 10 11 12 13 14
000
FTUS45 KTFX 290021 AAA
TAFHLN
TAF AMD
KHLN 290021Z 2900/2924 VRB06KT 5SM FU BKN060
     FM291900 16009G17KT 5SM FU OVC150
     FM292200 21010G18KT P6SM OVC150=

USA.gov is the U.S. government's official web portal to all federal, state and local government web resources and services.